sensor_id;sensor_type;location;lat;lon;timestamp;temperature;humidity
14093;DHT22;7123;49.468;10.992;2022-10-10T00:01:11;14.10;99.90
14093;DHT22;7123;49.468;10.992;2022-10-10T00:03:38;14.10;99.90
14093;DHT22;7123;49.468;10.992;2022-10-10T00:06:05;14.10;99.90
14093;DHT22;7123;49.468;10.992;2022-10-10T00:08:32;14.10;99.90
14093;DHT22;7123;49.468;10.992;2022-10-10T00:10:59;14.10;99.90
14093;DHT22;7123;49.468;10.992;2022-10-10T00:13:25;14.10;99.90
14093;DHT22;7123;49.468;10.992;2022-10-10T00:15:52;14.10;99.90
14093;DHT22;7123;49.468;10.992;2022-10-10T00:18:19;14.10;99.90
14093;DHT22;7123;49.468;10.992;2022-10-10T00:20:45;14.10;99.90
14093;DHT22;7123;49.468;10.992;2022-10-10T00:23:12;14.10;99.90
14093;DHT22;7123;49.468;10.992;2022-10-10T00:25:39;14.10;99.90
14093;DHT22;7123;49.468;10.992;2022-10-10T00:28:05;14.10;99.90
14093;DHT22;7123;49.468;10.992;2022-10-10T00:30:32;14.10;99.90
14093;DHT22;7123;49.468;10.992;2022-10-10T00:32:59;14.00;99.90
14093;DHT22;7123;49.468;10.992;2022-10-10T00:35:27;14.10;99.90
14093;DHT22;7123;49.468;10.992;2022-10-10T00:37:53;14.10;99.90
14093;DHT22;7123;49.468;10.992;2022-10-10T00:40:21;14.00;99.90
14093;DHT22;7123;49.468;10.992;2022-10-10T00:42:48;14.00;99.90
14093;DHT22;7123;49.468;10.992;2022-10-10T00:45:41;14.00;99.90
14093;DHT22;7123;49.468;10.992;2022-10-10T00:48:21;14.00;99.90
14093;DHT22;7123;49.468;10.992;2022-10-10T00:53:25;14.00;99.90
14093;DHT22;7123;49.468;10.992;2022-10-10T00:55:53;14.00;99.90
14093;DHT22;7123;49.468;10.992;2022-10-10T00:58:22;14.00;99.90
14093;DHT22;7123;49.468;10.992;2022-10-10T01:00:49;14.00;99.90
14093;DHT22;7123;49.468;10.992;2022-10-10T01:03:17;13.80;99.90
14093;DHT22;7123;49.468;10.992;2022-10-10T01:05:44;13.90;99.90
14093;DHT22;7123;49.468;10.992;2022-10-10T01:08:13;14.00;99.90
14093;DHT22;7123;49.468;10.992;2022-10-10T01:13:54;13.90;99.90
14093;DHT22;7123;49.468;10.992;2022-10-10T01:16:29;13.90;99.90
14093;DHT22;7123;49.468;10.992;2022-10-10T01:21:50;14.00;99.90
14093;DHT22;7123;49.468;10.992;2022-10-10T01:30:08;13.90;99.90
14093;DHT22;7123;49.468;10.992;2022-10-10T01:33:04;13.90;99.90
14093;DHT22;7123;49.468;10.992;2022-10-10T01:38:39;13.90;99.90
14093;DHT22;7123;49.468;10.992;2022-10-10T01:41:18;13.90;99.90
14093;DHT22;7123;49.468;10.992;2022-10-10T01:43:52;13.90;99.90
14093;DHT22;7123;49.468;10.992;2022-10-10T01:46:19;13.90;99.90
14093;DHT22;7123;49.468;10.992;2022-10-10T01:48:47;13.90;99.90
14093;DHT22;7123;49.468;10.992;2022-10-10T02:00:04;13.80;99.90
14093;DHT22;7123;49.468;10.992;2022-10-10T02:03:04;13.80;99.90
14093;DHT22;7123;49.468;10.992;2022-10-10T02:08:36;13.80;99.90
14093;DHT22;7123;49.468;10.992;2022-10-10T02:11:09;13.80;99.90
14093;DHT22;7123;49.468;10.992;2022-10-10T02:16:14;13.80;99.90
14093;DHT22;7123;49.468;10.992;2022-10-10T02:18:43;13.80;99.90
14093;DHT22;7123;49.468;10.992;2022-10-10T02:21:12;13.80;99.90
14093;DHT22;7123;49.468;10.992;2022-10-10T02:23:41;13.80;99.90
14093;DHT22;7123;49.468;10.992;2022-10-10T02:26:12;13.70;99.90
14093;DHT22;7123;49.468;10.992;2022-10-10T02:29:10;13.80;99.90
14093;DHT22;7123;49.468;10.992;2022-10-10T02:31:47;13.70;99.90
14093;DHT22;7123;49.468;10.992;2022-10-10T02:34:20;13.70;99.90
14093;DHT22;7123;49.468;10.992;2022-10-10T02:36:51;13.70;99.90
14093;DHT22;7123;49.468;10.992;2022-10-10T02:39:21;13.70;99.90
14093;DHT22;7123;49.468;10.992;2022-10-10T02:41:50;13.70;99.90
14093;DHT22;7123;49.468;10.992;2022-10-10T02:44:18;13.70;99.90
14093;DHT22;7123;49.468;10.992;2022-10-10T02:46:45;13.70;99.90
14093;DHT22;7123;49.468;10.992;2022-10-10T02:49:12;13.70;99.90
14093;DHT22;7123;49.468;10.992;2022-10-10T02:51:39;13.60;99.90
14093;DHT22;7123;49.468;10.992;2022-10-10T02:54:06;13.60;99.90
14093;DHT22;7123;49.468;10.992;2022-10-10T02:56:33;13.60;99.90
14093;DHT22;7123;49.468;10.992;2022-10-10T02:58:59;13.60;99.90
14093;DHT22;7123;49.468;10.992;2022-10-10T03:01:26;13.60;99.90
14093;DHT22;7123;49.468;10.992;2022-10-10T03:03:53;13.60;99.90
14093;DHT22;7123;49.468;10.992;2022-10-10T03:06:19;13.60;99.90
14093;DHT22;7123;49.468;10.992;2022-10-10T03:08:46;13.60;99.90
14093;DHT22;7123;49.468;10.992;2022-10-10T03:11:14;13.50;99.90
14093;DHT22;7123;49.468;10.992;2022-10-10T03:13:41;13.60;99.90
14093;DHT22;7123;49.468;10.992;2022-10-10T03:16:07;13.50;99.90
14093;DHT22;7123;49.468;10.992;2022-10-10T03:18:34;13.50;99.90
14093;DHT22;7123;49.468;10.992;2022-10-10T03:21:01;13.50;99.90
14093;DHT22;7123;49.468;10.992;2022-10-10T03:23:29;13.60;99.90
14093;DHT22;7123;49.468;10.992;2022-10-10T03:25:55;13.50;99.90
14093;DHT22;7123;49.468;10.992;2022-10-10T03:28:22;13.50;99.90
14093;DHT22;7123;49.468;10.992;2022-10-10T03:30:49;13.50;99.90
14093;DHT22;7123;49.468;10.992;2022-10-10T03:33:15;13.50;99.90
14093;DHT22;7123;49.468;10.992;2022-10-10T03:35:42;13.50;99.90
14093;DHT22;7123;49.468;10.992;2022-10-10T03:38:10;13.50;99.90
14093;DHT22;7123;49.468;10.992;2022-10-10T03:40:39;13.50;99.90
14093;DHT22;7123;49.468;10.992;2022-10-10T03:43:08;13.50;99.90
14093;DHT22;7123;49.468;10.992;2022-10-10T03:45:34;13.50;99.90
14093;DHT22;7123;49.468;10.992;2022-10-10T03:48:01;13.50;99.90
14093;DHT22;7123;49.468;10.992;2022-10-10T03:50:28;13.40;99.90
14093;DHT22;7123;49.468;10.992;2022-10-10T03:52:55;13.40;99.90
14093;DHT22;7123;49.468;10.992;2022-10-10T03:55:22;13.40;99.90
14093;DHT22;7123;49.468;10.992;2022-10-10T03:57:48;13.40;99.90
14093;DHT22;7123;49.468;10.992;2022-10-10T04:00:15;13.30;99.90
14093;DHT22;7123;49.468;10.992;2022-10-10T04:02:42;13.30;99.90
14093;DHT22;7123;49.468;10.992;2022-10-10T04:05:08;13.30;99.90
14093;DHT22;7123;49.468;10.992;2022-10-10T04:07:35;13.30;99.90
14093;DHT22;7123;49.468;10.992;2022-10-10T04:10:03;13.30;99.90
14093;DHT22;7123;49.468;10.992;2022-10-10T04:12:30;13.30;99.90
14093;DHT22;7123;49.468;10.992;2022-10-10T04:14:57;13.30;99.90
14093;DHT22;7123;49.468;10.992;2022-10-10T04:17:24;13.30;99.90
14093;DHT22;7123;49.468;10.992;2022-10-10T04:19:51;13.30;99.90
14093;DHT22;7123;49.468;10.992;2022-10-10T04:22:17;13.30;99.90
14093;DHT22;7123;49.468;10.992;2022-10-10T04:24:44;13.30;99.90
14093;DHT22;7123;49.468;10.992;2022-10-10T04:27:11;13.30;99.90
14093;DHT22;7123;49.468;10.992;2022-10-10T04:29:38;13.20;99.90
14093;DHT22;7123;49.468;10.992;2022-10-10T04:32:04;13.20;99.90
14093;DHT22;7123;49.468;10.992;2022-10-10T04:34:33;13.30;99.90
14093;DHT22;7123;49.468;10.992;2022-10-10T04:37:00;13.20;99.90
14093;DHT22;7123;49.468;10.992;2022-10-10T04:39:27;13.20;99.90
14093;DHT22;7123;49.468;10.992;2022-10-10T04:41:54;13.20;99.90
14093;DHT22;7123;49.468;10.992;2022-10-10T04:44:20;13.20;99.90
14093;DHT22;7123;49.468;10.992;2022-10-10T04:46:47;13.20;99.90
14093;DHT22;7123;49.468;10.992;2022-10-10T04:49:14;13.10;99.90
14093;DHT22;7123;49.468;10.992;2022-10-10T04:51:41;13.20;99.90
14093;DHT22;7123;49.468;10.992;2022-10-10T04:54:08;13.10;99.90
14093;DHT22;7123;49.468;10.992;2022-10-10T04:56:35;13.20;99.90
14093;DHT22;7123;49.468;10.992;2022-10-10T04:59:02;13.10;99.90
14093;DHT22;7123;49.468;10.992;2022-10-10T05:01:28;13.10;99.90
14093;DHT22;7123;49.468;10.992;2022-10-10T05:03:55;13.10;99.90
14093;DHT22;7123;49.468;10.992;2022-10-10T05:06:22;13.10;99.90
14093;DHT22;7123;49.468;10.992;2022-10-10T05:08:48;13.10;99.90
14093;DHT22;7123;49.468;10.992;2022-10-10T05:11:15;13.10;99.90
14093;DHT22;7123;49.468;10.992;2022-10-10T05:13:42;13.10;99.90
14093;DHT22;7123;49.468;10.992;2022-10-10T05:16:09;13.00;99.90
14093;DHT22;7123;49.468;10.992;2022-10-10T05:18:35;13.10;99.90
14093;DHT22;7123;49.468;10.992;2022-10-10T05:21:04;13.00;99.90
14093;DHT22;7123;49.468;10.992;2022-10-10T05:23:34;13.00;99.90
14093;DHT22;7123;49.468;10.992;2022-10-10T05:26:01;13.00;99.90
14093;DHT22;7123;49.468;10.992;2022-10-10T05:28:27;13.00;99.90
14093;DHT22;7123;49.468;10.992;2022-10-10T05:30:54;13.00;99.90
14093;DHT22;7123;49.468;10.992;2022-10-10T05:33:21;13.00;99.90
14093;DHT22;7123;49.468;10.992;2022-10-10T05:35:48;13.00;99.90
14093;DHT22;7123;49.468;10.992;2022-10-10T05:38:14;13.00;99.90
14093;DHT22;7123;49.468;10.992;2022-10-10T05:40:41;13.00;99.90
14093;DHT22;7123;49.468;10.992;2022-10-10T05:43:08;13.00;99.90
14093;DHT22;7123;49.468;10.992;2022-10-10T05:45:35;13.10;99.90
14093;DHT22;7123;49.468;10.992;2022-10-10T05:48:02;13.00;99.90
14093;DHT22;7123;49.468;10.992;2022-10-10T05:50:31;13.00;99.90
14093;DHT22;7123;49.468;10.992;2022-10-10T05:52:58;13.00;99.90
14093;DHT22;7123;49.468;10.992;2022-10-10T05:55:25;13.00;99.90
14093;DHT22;7123;49.468;10.992;2022-10-10T05:57:52;13.00;99.90
14093;DHT22;7123;49.468;10.992;2022-10-10T06:00:18;13.00;99.90
14093;DHT22;7123;49.468;10.992;2022-10-10T06:02:45;13.00;99.90
14093;DHT22;7123;49.468;10.992;2022-10-10T06:05:12;13.00;99.90
14093;DHT22;7123;49.468;10.992;2022-10-10T06:07:39;13.00;99.90
14093;DHT22;7123;49.468;10.992;2022-10-10T06:10:25;13.00;99.90
14093;DHT22;7123;49.468;10.992;2022-10-10T06:12:52;13.00;99.90
14093;DHT22;7123;49.468;10.992;2022-10-10T06:15:19;12.90;99.90
14093;DHT22;7123;49.468;10.992;2022-10-10T06:17:46;13.00;99.90
14093;DHT22;7123;49.468;10.992;2022-10-10T06:20:12;12.90;99.90
14093;DHT22;7123;49.468;10.992;2022-10-10T06:22:39;12.90;99.90
14093;DHT22;7123;49.468;10.992;2022-10-10T06:25:06;12.90;99.90
14093;DHT22;7123;49.468;10.992;2022-10-10T06:27:53;12.90;99.90
14093;DHT22;7123;49.468;10.992;2022-10-10T06:30:19;13.00;99.90
14093;DHT22;7123;49.468;10.992;2022-10-10T06:32:46;13.00;99.90
14093;DHT22;7123;49.468;10.992;2022-10-10T06:35:13;12.90;99.90
14093;DHT22;7123;49.468;10.992;2022-10-10T06:37:40;13.00;99.90
14093;DHT22;7123;49.468;10.992;2022-10-10T06:40:07;13.00;99.90
14093;DHT22;7123;49.468;10.992;2022-10-10T06:42:34;12.90;99.90
14093;DHT22;7123;49.468;10.992;2022-10-10T06:45:01;12.90;99.90
14093;DHT22;7123;49.468;10.992;2022-10-10T06:47:29;13.00;99.90
14093;DHT22;7123;49.468;10.992;2022-10-10T06:49:56;12.90;99.90
14093;DHT22;7123;49.468;10.992;2022-10-10T06:52:23;12.90;99.90
14093;DHT22;7123;49.468;10.992;2022-10-10T06:54:51;13.00;99.90
14093;DHT22;7123;49.468;10.992;2022-10-10T06:57:18;12.90;99.90
14093;DHT22;7123;49.468;10.992;2022-10-10T06:59:45;13.00;99.90
14093;DHT22;7123;49.468;10.992;2022-10-10T07:02:12;13.00;99.90
14093;DHT22;7123;49.468;10.992;2022-10-10T07:04:39;13.00;99.90
14093;DHT22;7123;49.468;10.992;2022-10-10T07:07:06;13.00;99.90
14093;DHT22;7123;49.468;10.992;2022-10-10T07:09:34;13.00;99.90
14093;DHT22;7123;49.468;10.992;2022-10-10T07:12:01;13.00;99.90
14093;DHT22;7123;49.468;10.992;2022-10-10T07:14:28;13.10;99.90
14093;DHT22;7123;49.468;10.992;2022-10-10T07:16:55;13.10;99.90
14093;DHT22;7123;49.468;10.992;2022-10-10T07:19:22;13.10;99.90
14093;DHT22;7123;49.468;10.992;2022-10-10T07:21:50;13.10;99.90
14093;DHT22;7123;49.468;10.992;2022-10-10T07:24:17;13.10;99.90
14093;DHT22;7123;49.468;10.992;2022-10-10T07:26:44;13.10;99.90
14093;DHT22;7123;49.468;10.992;2022-10-10T07:29:11;13.10;99.90
14093;DHT22;7123;49.468;10.992;2022-10-10T07:31:38;13.10;99.90
14093;DHT22;7123;49.468;10.992;2022-10-10T07:34:05;13.20;99.90
14093;DHT22;7123;49.468;10.992;2022-10-10T07:36:33;13.20;99.90
14093;DHT22;7123;49.468;10.992;2022-10-10T07:39:00;13.20;99.90
14093;DHT22;7123;49.468;10.992;2022-10-10T07:41:27;13.20;99.90
14093;DHT22;7123;49.468;10.992;2022-10-10T07:43:55;13.20;99.90
14093;DHT22;7123;49.468;10.992;2022-10-10T07:46:25;13.30;99.90
14093;DHT22;7123;49.468;10.992;2022-10-10T07:48:52;13.30;99.90
14093;DHT22;7123;49.468;10.992;2022-10-10T07:51:19;13.30;99.90
14093;DHT22;7123;49.468;10.992;2022-10-10T07:53:46;13.40;99.90
14093;DHT22;7123;49.468;10.992;2022-10-10T07:56:12;13.40;99.90
14093;DHT22;7123;49.468;10.992;2022-10-10T07:58:39;13.40;99.90
14093;DHT22;7123;49.468;10.992;2022-10-10T08:01:10;13.50;99.90
14093;DHT22;7123;49.468;10.992;2022-10-10T08:03:38;13.40;99.90
14093;DHT22;7123;49.468;10.992;2022-10-10T08:06:09;13.40;99.90
14093;DHT22;7123;49.468;10.992;2022-10-10T08:08:37;13.40;99.90
14093;DHT22;7123;49.468;10.992;2022-10-10T08:11:14;13.50;99.90
14093;DHT22;7123;49.468;10.992;2022-10-10T08:13:40;13.50;99.90
14093;DHT22;7123;49.468;10.992;2022-10-10T08:16:07;13.50;99.90
14093;DHT22;7123;49.468;10.992;2022-10-10T08:18:34;13.50;99.90
14093;DHT22;7123;49.468;10.992;2022-10-10T08:21:06;13.60;99.90
14093;DHT22;7123;49.468;10.992;2022-10-10T08:23:34;13.60;99.90
14093;DHT22;7123;49.468;10.992;2022-10-10T08:26:04;13.70;99.90
14093;DHT22;7123;49.468;10.992;2022-10-10T08:28:30;13.70;99.90
14093;DHT22;7123;49.468;10.992;2022-10-10T08:30:58;13.70;99.90
14093;DHT22;7123;49.468;10.992;2022-10-10T08:33:29;13.80;99.90
14093;DHT22;7123;49.468;10.992;2022-10-10T08:35:56;13.80;99.90
14093;DHT22;7123;49.468;10.992;2022-10-10T08:38:23;13.80;99.90
14093;DHT22;7123;49.468;10.992;2022-10-10T08:40:52;13.90;99.90
14093;DHT22;7123;49.468;10.992;2022-10-10T08:45:56;14.00;99.90
14093;DHT22;7123;49.468;10.992;2022-10-10T08:48:27;14.10;99.90
14093;DHT22;7123;49.468;10.992;2022-10-10T08:51:00;14.10;99.90
14093;DHT22;7123;49.468;10.992;2022-10-10T08:53:32;14.10;99.90
14093;DHT22;7123;49.468;10.992;2022-10-10T08:56:03;14.20;99.90
14093;DHT22;7123;49.468;10.992;2022-10-10T08:58:41;14.20;99.90
14093;DHT22;7123;49.468;10.992;2022-10-10T09:01:23;14.20;99.90
14093;DHT22;7123;49.468;10.992;2022-10-10T09:03:56;14.30;99.90
14093;DHT22;7123;49.468;10.992;2022-10-10T09:23:01;14.60;99.90
14093;DHT22;7123;49.468;10.992;2022-10-10T09:25:56;14.60;99.90
14093;DHT22;7123;49.468;10.992;2022-10-10T09:30:55;14.70;99.90
14093;DHT22;7123;49.468;10.992;2022-10-10T09:33:31;14.60;99.90
14093;DHT22;7123;49.468;10.992;2022-10-10T09:36:04;14.70;99.90
14093;DHT22;7123;49.468;10.992;2022-10-10T09:38:40;14.70;99.90
14093;DHT22;7123;49.468;10.992;2022-10-10T09:41:18;14.70;99.90
14093;DHT22;7123;49.468;10.992;2022-10-10T09:43:46;14.80;99.90
14093;DHT22;7123;49.468;10.992;2022-10-10T09:46:13;14.80;99.90
14093;DHT22;7123;49.468;10.992;2022-10-10T09:48:41;14.80;99.90
14093;DHT22;7123;49.468;10.992;2022-10-10T09:51:16;14.80;99.90
14093;DHT22;7123;49.468;10.992;2022-10-10T09:53:45;14.80;99.90
14093;DHT22;7123;49.468;10.992;2022-10-10T09:56:20;14.80;99.90
14093;DHT22;7123;49.468;10.992;2022-10-10T09:58:52;14.90;99.90
14093;DHT22;7123;49.468;10.992;2022-10-10T10:07:24;15.10;99.90
14093;DHT22;7123;49.468;10.992;2022-10-10T10:09:51;15.20;99.90
14093;DHT22;7123;49.468;10.992;2022-10-10T10:12:22;15.20;99.90
14093;DHT22;7123;49.468;10.992;2022-10-10T10:14:51;15.30;99.90
14093;DHT22;7123;49.468;10.992;2022-10-10T10:17:22;15.30;99.90
14093;DHT22;7123;49.468;10.992;2022-10-10T10:19:50;15.40;99.90
14093;DHT22;7123;49.468;10.992;2022-10-10T10:22:34;15.50;99.90
14093;DHT22;7123;49.468;10.992;2022-10-10T10:28:20;15.60;99.90
14093;DHT22;7123;49.468;10.992;2022-10-10T10:30:47;15.60;99.90
14093;DHT22;7123;49.468;10.992;2022-10-10T10:33:36;15.60;99.90
14093;DHT22;7123;49.468;10.992;2022-10-10T10:38:49;15.70;99.90
14093;DHT22;7123;49.468;10.992;2022-10-10T10:41:59;15.70;99.90
14093;DHT22;7123;49.468;10.992;2022-10-10T10:44:41;15.60;99.90
14093;DHT22;7123;49.468;10.992;2022-10-10T10:50:09;15.60;99.90
14093;DHT22;7123;49.468;10.992;2022-10-10T11:01:55;15.80;99.90
14093;DHT22;7123;49.468;10.992;2022-10-10T11:13:45;16.10;99.90
14093;DHT22;7123;49.468;10.992;2022-10-10T11:16:23;16.10;99.90
14093;DHT22;7123;49.468;10.992;2022-10-10T11:22:08;16.30;99.90
14093;DHT22;7123;49.468;10.992;2022-10-10T11:24:58;16.30;99.90
14093;DHT22;7123;49.468;10.992;2022-10-10T11:27:45;16.40;99.90
14093;DHT22;7123;49.468;10.992;2022-10-10T11:30:22;16.40;99.90
14093;DHT22;7123;49.468;10.992;2022-10-10T11:33:06;16.40;99.90
14093;DHT22;7123;49.468;10.992;2022-10-10T11:38:19;16.40;99.90
14093;DHT22;7123;49.468;10.992;2022-10-10T11:41:01;16.40;99.90
14093;DHT22;7123;49.468;10.992;2022-10-10T11:46:42;16.30;99.90
14093;DHT22;7123;49.468;10.992;2022-10-10T11:57:20;16.30;99.90
14093;DHT22;7123;49.468;10.992;2022-10-10T11:59:55;16.30;99.90
14093;DHT22;7123;49.468;10.992;2022-10-10T12:02:29;16.30;99.90
14093;DHT22;7123;49.468;10.992;2022-10-10T12:04:57;16.30;99.90
14093;DHT22;7123;49.468;10.992;2022-10-10T12:10:08;16.40;99.90
14093;DHT22;7123;49.468;10.992;2022-10-10T12:12:43;16.50;99.90
14093;DHT22;7123;49.468;10.992;2022-10-10T12:15:31;16.50;99.90
14093;DHT22;7123;49.468;10.992;2022-10-10T12:18:05;16.50;99.90
14093;DHT22;7123;49.468;10.992;2022-10-10T12:20:36;16.50;99.90
14093;DHT22;7123;49.468;10.992;2022-10-10T12:26:16;16.60;99.90
14093;DHT22;7123;49.468;10.992;2022-10-10T12:29:08;16.60;99.90
14093;DHT22;7123;49.468;10.992;2022-10-10T12:31:37;16.60;99.90
14093;DHT22;7123;49.468;10.992;2022-10-10T12:34:13;16.70;99.90
14093;DHT22;7123;49.468;10.992;2022-10-10T12:37:08;16.70;99.90
14093;DHT22;7123;49.468;10.992;2022-10-10T12:39:37;16.80;99.90
14093;DHT22;7123;49.468;10.992;2022-10-10T12:42:25;16.80;99.90
14093;DHT22;7123;49.468;10.992;2022-10-10T12:44:52;16.90;99.90
14093;DHT22;7123;49.468;10.992;2022-10-10T12:47:34;16.90;99.90
14093;DHT22;7123;49.468;10.992;2022-10-10T12:50:24;17.00;99.90
14093;DHT22;7123;49.468;10.992;2022-10-10T12:52:55;17.00;99.90
14093;DHT22;7123;49.468;10.992;2022-10-10T12:55:29;17.10;99.90
14093;DHT22;7123;49.468;10.992;2022-10-10T12:58:01;17.10;99.90
14093;DHT22;7123;49.468;10.992;2022-10-10T13:00:37;17.20;99.90
14093;DHT22;7123;49.468;10.992;2022-10-10T13:03:15;17.30;99.90
14093;DHT22;7123;49.468;10.992;2022-10-10T13:05:44;17.30;99.90
14093;DHT22;7123;49.468;10.992;2022-10-10T13:08:18;17.30;99.90
14093;DHT22;7123;49.468;10.992;2022-10-10T13:11:08;17.20;99.90
14093;DHT22;7123;49.468;10.992;2022-10-10T13:13:38;17.20;99.90
14093;DHT22;7123;49.468;10.992;2022-10-10T13:16:08;17.20;99.90
14093;DHT22;7123;49.468;10.992;2022-10-10T13:21:10;17.20;99.90
14093;DHT22;7123;49.468;10.992;2022-10-10T13:23:43;17.20;99.90
14093;DHT22;7123;49.468;10.992;2022-10-10T13:26:36;17.20;99.90
14093;DHT22;7123;49.468;10.992;2022-10-10T13:31:43;17.30;99.90
14093;DHT22;7123;49.468;10.992;2022-10-10T13:34:15;17.40;99.90
14093;DHT22;7123;49.468;10.992;2022-10-10T13:36:44;17.50;99.90
14093;DHT22;7123;49.468;10.992;2022-10-10T13:39:15;17.50;99.90
14093;DHT22;7123;49.468;10.992;2022-10-10T13:41:45;17.50;99.90
14093;DHT22;7123;49.468;10.992;2022-10-10T13:44:24;17.50;99.90
14093;DHT22;7123;49.468;10.992;2022-10-10T13:46:51;17.50;99.90
14093;DHT22;7123;49.468;10.992;2022-10-10T13:49:24;17.50;99.90
14093;DHT22;7123;49.468;10.992;2022-10-10T13:52:20;17.40;99.90
14093;DHT22;7123;49.468;10.992;2022-10-10T13:54:47;17.40;99.90
14093;DHT22;7123;49.468;10.992;2022-10-10T13:57:21;17.40;99.90
14093;DHT22;7123;49.468;10.992;2022-10-10T14:00:00;17.50;99.90
14093;DHT22;7123;49.468;10.992;2022-10-10T14:02:32;17.40;99.90
14093;DHT22;7123;49.468;10.992;2022-10-10T14:05:07;17.50;99.90
14093;DHT22;7123;49.468;10.992;2022-10-10T14:07:35;17.50;99.90
14093;DHT22;7123;49.468;10.992;2022-10-10T14:10:07;17.60;99.90
14093;DHT22;7123;49.468;10.992;2022-10-10T14:12:41;17.80;99.90
14093;DHT22;7123;49.468;10.992;2022-10-10T14:17:54;18.20;99.90
14093;DHT22;7123;49.468;10.992;2022-10-10T14:20:21;18.30;99.90
14093;DHT22;7123;49.468;10.992;2022-10-10T14:22:49;18.40;99.90
14093;DHT22;7123;49.468;10.992;2022-10-10T14:25:16;18.40;99.90
14093;DHT22;7123;49.468;10.992;2022-10-10T14:27:42;18.30;99.90
14093;DHT22;7123;49.468;10.992;2022-10-10T14:30:12;18.30;99.90
14093;DHT22;7123;49.468;10.992;2022-10-10T14:32:39;18.40;99.90
14093;DHT22;7123;49.468;10.992;2022-10-10T14:35:06;18.40;99.90
14093;DHT22;7123;49.468;10.992;2022-10-10T14:37:33;18.50;99.90
14093;DHT22;7123;49.468;10.992;2022-10-10T14:40:18;18.70;99.90
14093;DHT22;7123;49.468;10.992;2022-10-10T14:42:46;19.00;99.90
14093;DHT22;7123;49.468;10.992;2022-10-10T14:45:14;19.10;99.90
14093;DHT22;7123;49.468;10.992;2022-10-10T14:47:42;19.20;99.90
14093;DHT22;7123;49.468;10.992;2022-10-10T14:50:17;19.20;99.90
14093;DHT22;7123;49.468;10.992;2022-10-10T14:52:45;19.20;99.90
14093;DHT22;7123;49.468;10.992;2022-10-10T14:55:12;19.40;99.90
14093;DHT22;7123;49.468;10.992;2022-10-10T14:57:39;19.50;99.90
14093;DHT22;7123;49.468;10.992;2022-10-10T15:00:15;19.60;99.90
14093;DHT22;7123;49.468;10.992;2022-10-10T15:02:42;19.70;99.90
14093;DHT22;7123;49.468;10.992;2022-10-10T15:05:12;19.60;99.90
14093;DHT22;7123;49.468;10.992;2022-10-10T15:07:39;19.50;99.90
14093;DHT22;7123;49.468;10.992;2022-10-10T15:10:06;19.40;99.90
14093;DHT22;7123;49.468;10.992;2022-10-10T15:12:53;19.40;99.90
14093;DHT22;7123;49.468;10.992;2022-10-10T15:15:20;19.50;99.90
14093;DHT22;7123;49.468;10.992;2022-10-10T15:17:47;19.60;99.90
14093;DHT22;7123;49.468;10.992;2022-10-10T15:20:14;19.60;99.90
14093;DHT22;7123;49.468;10.992;2022-10-10T15:22:41;19.70;99.90
14093;DHT22;7123;49.468;10.992;2022-10-10T15:25:08;19.70;99.90
14093;DHT22;7123;49.468;10.992;2022-10-10T15:27:36;19.70;99.90
14093;DHT22;7123;49.468;10.992;2022-10-10T15:30:04;19.70;99.90
14093;DHT22;7123;49.468;10.992;2022-10-10T15:32:31;19.80;99.90
14093;DHT22;7123;49.468;10.992;2022-10-10T15:34:57;19.80;99.90
14093;DHT22;7123;49.468;10.992;2022-10-10T15:37:25;19.80;99.90
14093;DHT22;7123;49.468;10.992;2022-10-10T15:39:52;19.80;99.90
14093;DHT22;7123;49.468;10.992;2022-10-10T15:42:19;19.80;99.90
14093;DHT22;7123;49.468;10.992;2022-10-10T15:44:49;19.70;99.90
14093;DHT22;7123;49.468;10.992;2022-10-10T15:47:17;19.70;99.90
14093;DHT22;7123;49.468;10.992;2022-10-10T15:49:44;19.60;99.90
14093;DHT22;7123;49.468;10.992;2022-10-10T15:52:11;19.60;99.90
14093;DHT22;7123;49.468;10.992;2022-10-10T15:54:37;19.50;99.90
14093;DHT22;7123;49.468;10.992;2022-10-10T15:57:04;19.30;99.90
14093;DHT22;7123;49.468;10.992;2022-10-10T15:59:31;19.20;99.90
14093;DHT22;7123;49.468;10.992;2022-10-10T16:01:59;19.20;99.90
14093;DHT22;7123;49.468;10.992;2022-10-10T16:04:26;19.10;99.90
14093;DHT22;7123;49.468;10.992;2022-10-10T16:06:53;19.10;99.90
14093;DHT22;7123;49.468;10.992;2022-10-10T16:09:39;19.00;99.90
14093;DHT22;7123;49.468;10.992;2022-10-10T16:12:06;19.00;99.90
14093;DHT22;7123;49.468;10.992;2022-10-10T16:14:34;18.90;99.90
14093;DHT22;7123;49.468;10.992;2022-10-10T16:17:01;19.00;99.90
14093;DHT22;7123;49.468;10.992;2022-10-10T16:19:27;18.90;99.90
14093;DHT22;7123;49.468;10.992;2022-10-10T16:21:54;18.90;99.90
14093;DHT22;7123;49.468;10.992;2022-10-10T16:24:21;18.90;99.90
14093;DHT22;7123;49.468;10.992;2022-10-10T16:26:49;18.90;99.90
14093;DHT22;7123;49.468;10.992;2022-10-10T16:29:16;18.90;99.90
14093;DHT22;7123;49.468;10.992;2022-10-10T16:31:44;18.90;99.90
14093;DHT22;7123;49.468;10.992;2022-10-10T16:34:11;18.80;99.90
14093;DHT22;7123;49.468;10.992;2022-10-10T16:36:41;18.80;99.90
14093;DHT22;7123;49.468;10.992;2022-10-10T16:39:08;18.70;99.90
14093;DHT22;7123;49.468;10.992;2022-10-10T16:41:35;18.70;99.90
14093;DHT22;7123;49.468;10.992;2022-10-10T16:44:17;18.60;99.90
14093;DHT22;7123;49.468;10.992;2022-10-10T16:46:44;18.50;99.90
14093;DHT22;7123;49.468;10.992;2022-10-10T16:49:11;18.50;99.90
14093;DHT22;7123;49.468;10.992;2022-10-10T16:51:38;18.40;99.90
14093;DHT22;7123;49.468;10.992;2022-10-10T16:54:05;18.40;99.90
14093;DHT22;7123;49.468;10.992;2022-10-10T16:56:33;18.40;99.90
14093;DHT22;7123;49.468;10.992;2022-10-10T16:59:00;18.40;99.90
14093;DHT22;7123;49.468;10.992;2022-10-10T17:01:27;18.30;99.90
14093;DHT22;7123;49.468;10.992;2022-10-10T17:03:57;18.30;99.90
14093;DHT22;7123;49.468;10.992;2022-10-10T17:06:24;18.30;99.90
14093;DHT22;7123;49.468;10.992;2022-10-10T17:08:55;18.20;99.90
14093;DHT22;7123;49.468;10.992;2022-10-10T17:11:23;18.20;99.90
14093;DHT22;7123;49.468;10.992;2022-10-10T17:13:51;18.10;99.90
14093;DHT22;7123;49.468;10.992;2022-10-10T17:16:22;18.00;99.90
14093;DHT22;7123;49.468;10.992;2022-10-10T17:19:09;18.00;99.90
14093;DHT22;7123;49.468;10.992;2022-10-10T17:21:36;17.90;99.90
14093;DHT22;7123;49.468;10.992;2022-10-10T17:24:03;17.80;99.90
14093;DHT22;7123;49.468;10.992;2022-10-10T17:26:30;17.80;99.90
14093;DHT22;7123;49.468;10.992;2022-10-10T17:28:58;17.70;99.90
14093;DHT22;7123;49.468;10.992;2022-10-10T17:31:25;17.70;99.90
14093;DHT22;7123;49.468;10.992;2022-10-10T17:33:53;17.60;99.90
14093;DHT22;7123;49.468;10.992;2022-10-10T17:36:24;17.60;99.90
14093;DHT22;7123;49.468;10.992;2022-10-10T17:38:51;17.60;99.90
14093;DHT22;7123;49.468;10.992;2022-10-10T17:41:19;17.60;99.90
14093;DHT22;7123;49.468;10.992;2022-10-10T17:43:46;17.60;99.90
14093;DHT22;7123;49.468;10.992;2022-10-10T17:46:17;17.50;99.90